createdAt,value
2022-09-04T00:08:11.906Z,101013.28
2022-09-04T00:18:14.244Z,101010.72
2022-09-04T00:28:38.445Z,101011.47
2022-09-04T00:38:47.977Z,101023.03
2022-09-04T00:49:11.532Z,101025.97
2022-09-04T00:59:32.330Z,101033.59
2022-09-04T01:10:01.664Z,101043.38
2022-09-04T01:20:16.189Z,101040.78
2022-09-04T01:30:20.250Z,101036.53
2022-09-04T01:40:35.204Z,101041.91
2022-09-04T01:50:44.274Z,101033.59
2022-09-04T02:01:06.169Z,101034.25
2022-09-04T02:11:30.061Z,101040.06
2022-09-04T02:21:51.520Z,101034.56
2022-09-04T02:32:02.566Z,101034.69
2022-09-04T02:42:19.694Z,101045.03
2022-09-04T02:52:46.771Z,101031.88
2022-09-04T03:02:56.022Z,101036.09
2022-09-04T03:13:05.248Z,101042.72
2022-09-04T03:23:24.490Z,101052.97
2022-09-04T03:33:42.830Z,101057.69
2022-09-04T03:44:23.627Z,101054.75
2022-09-04T03:55:12.328Z,101069.81
2022-09-04T04:05:56.915Z,101069.53
2022-09-04T04:16:08.692Z,101078.97
2022-09-04T04:26:14.335Z,101086.72
2022-09-04T04:36:22.329Z,101082.41
2022-09-04T04:46:50.035Z,101090.53
2022-09-04T04:57:02.306Z,101092.97
2022-09-04T05:07:20.596Z,101099.66
2022-09-04T05:17:38.691Z,101102.56
2022-09-04T05:28:18.782Z,101118.63
2022-09-04T05:38:35.176Z,101140.50
2022-09-04T05:48:57.085Z,101145.97
2022-09-04T05:59:13.565Z,101148.34
2022-09-04T06:09:52.642Z,101143.81
2022-09-04T06:20:17.970Z,101150.88
2022-09-04T06:30:21.214Z,101148.75
2022-09-04T06:40:55.193Z,101169.44
2022-09-04T06:51:08.084Z,101175.53
2022-09-04T07:01:16.604Z,101173.34
2022-09-04T07:11:28.078Z,101185.97
2022-09-04T07:22:43.077Z,101160.22
2022-09-04T07:32:48.860Z,101183.34
2022-09-04T07:43:16.001Z,101181.53
2022-09-04T07:53:49.813Z,101177.91
2022-09-04T08:04:06.975Z,101185.72
2022-09-04T08:14:33.621Z,101180.44
2022-09-04T08:24:39.103Z,101195.09
2022-09-04T08:34:54.109Z,101196.34
2022-09-04T08:45:42.040Z,101201.03
2022-09-04T08:56:23.581Z,101204.41
2022-09-04T09:06:26.253Z,101193.69
2022-09-04T09:16:47.735Z,101187.75
2022-09-04T09:27:14.351Z,101182.44
2022-09-04T09:49:41.859Z,101185.19
2022-09-04T09:59:55.642Z,101177.03
2022-09-04T10:10:35.968Z,101171.28
2022-09-04T10:21:26.333Z,101164.44
2022-09-04T10:32:16.689Z,101173.28
2022-09-04T10:42:54.878Z,101174.34
2022-09-04T10:53:14.928Z,101163.47
2022-09-04T11:13:51.438Z,101153.38
2022-09-04T11:24:41.667Z,101143.72
2022-09-04T11:35:14.194Z,101144.16
2022-09-04T11:45:17.413Z,101136.31
2022-09-04T11:55:35.996Z,101132.31
2022-09-04T12:05:57.145Z,101129.69
2022-09-04T12:16:38.869Z,101119.84
2022-09-04T12:27:03.882Z,101118.44
2022-09-04T12:37:13.717Z,101108.44
2022-09-04T12:47:22.447Z,101104.06
2022-09-04T12:57:56.040Z,101107.34
2022-09-04T13:08:28.466Z,101109.53
2022-09-04T13:18:35.008Z,101103.44
2022-09-04T13:28:56.425Z,101098.03
2022-09-04T13:39:15.550Z,101096.59
2022-09-04T13:49:20.414Z,101091.72
2022-09-04T13:59:23.764Z,101087.69
2022-09-04T14:09:32.011Z,101089.63
2022-09-04T14:19:49.532Z,101089.06
2022-09-04T14:30:08.838Z,101082.19
2022-09-04T14:40:25.923Z,101076.94
2022-09-04T14:50:31.546Z,101082.31
2022-09-04T15:00:51.622Z,101083.56
2022-09-04T15:11:36.416Z,101081.75
2022-09-04T15:22:10.802Z,101082.28
2022-09-04T15:32:23.605Z,101092.31
2022-09-04T15:43:00.458Z,101104.09
2022-09-04T15:53:26.945Z,101087.00
2022-09-04T16:03:36.915Z,101088.72
2022-09-04T16:13:44.339Z,101103.19
2022-09-04T16:23:48.106Z,101103.44
2022-09-04T16:33:54.832Z,101107.03
2022-09-04T16:44:25.867Z,101115.28
2022-09-04T16:54:49.349Z,101124.81
2022-09-04T17:04:57.595Z,101113.94
2022-09-04T17:15:30.880Z,101123.53
2022-09-04T17:29:16.667Z,101143.41
2022-09-04T17:40:41.350Z,101155.50
2022-09-04T17:47:00.421Z,101165.56
2022-09-04T17:57:37.804Z,101178.22
2022-09-04T18:08:08.410Z,101189.72
2022-09-04T18:18:17.559Z,101200.84
2022-09-04T18:28:47.371Z,101218.13
2022-09-04T18:39:13.381Z,101214.69
2022-09-04T18:50:48.581Z,101227.72
2022-09-04T18:59:58.419Z,101234.56
2022-09-04T19:10:33.131Z,101241.47
2022-09-04T19:20:49.061Z,101233.84
2022-09-04T19:30:57.365Z,101226.91
2022-09-04T19:46:08.158Z,101242.25
2022-09-04T19:53:24.173Z,101237.19
2022-09-04T20:02:54.507Z,101250.59
2022-09-04T20:13:03.209Z,101260.59
2022-09-04T20:23:34.820Z,101261.38
2022-09-04T20:33:39.257Z,101259.84
2022-09-04T20:44:05.944Z,101262.47
2022-09-04T20:54:29.304Z,101272.41
2022-09-04T21:04:47.677Z,101284.22
2022-09-04T21:15:01.076Z,101295.63
2022-09-04T21:25:18.901Z,101302.09
2022-09-04T21:35:26.121Z,101303.16
2022-09-04T21:45:41.114Z,101310.66
2022-09-04T21:58:14.183Z,101299.16
2022-09-04T22:09:07.075Z,101293.97
2022-09-04T22:17:42.588Z,101290.66
2022-09-04T22:28:09.134Z,101284.25
2022-09-04T22:38:45.011Z,101288.84
2022-09-04T22:49:12.635Z,101294.63
2022-09-04T22:59:27.842Z,101304.94
2022-09-04T23:13:53.798Z,101296.97
2022-09-04T23:25:58.161Z,101301.19
2022-09-04T23:31:19.889Z,101301.09
2022-09-04T23:42:17.756Z,101290.00
2022-09-04T23:52:48.681Z,101295.75
